sensor_id;sensor_type;location;lat;lon;timestamp;P1;durP1;ratioP1;P2;durP2;ratioP2
72205;SDS011;60111;48.286;7.812;2022-07-17T00:01:33;3.87;;;2.72;;
72205;SDS011;60111;48.286;7.812;2022-07-17T00:04:06;4.15;;;2.90;;
72205;SDS011;60111;48.286;7.812;2022-07-17T00:06:39;4.03;;;2.65;;
72205;SDS011;60111;48.286;7.812;2022-07-17T00:09:12;5.10;;;3.08;;
72205;SDS011;60111;48.286;7.812;2022-07-17T00:11:45;7.17;;;2.90;;
72205;SDS011;60111;48.286;7.812;2022-07-17T00:14:18;5.00;;;2.60;;
72205;SDS011;60111;48.286;7.812;2022-07-17T00:16:50;5.87;;;3.10;;
72205;SDS011;60111;48.286;7.812;2022-07-17T00:19:24;3.40;;;2.70;;
72205;SDS011;60111;48.286;7.812;2022-07-17T00:21:57;4.12;;;2.80;;
72205;SDS011;60111;48.286;7.812;2022-07-17T00:24:30;3.95;;;2.72;;
72205;SDS011;60111;48.286;7.812;2022-07-17T00:27:02;5.10;;;3.40;;
72205;SDS011;60111;48.286;7.812;2022-07-17T00:29:35;5.35;;;2.80;;
72205;SDS011;60111;48.286;7.812;2022-07-17T00:32:08;4.75;;;2.98;;
72205;SDS011;60111;48.286;7.812;2022-07-17T00:34:40;4.85;;;2.75;;
72205;SDS011;60111;48.286;7.812;2022-07-17T00:37:13;6.12;;;2.77;;
72205;SDS011;60111;48.286;7.812;2022-07-17T00:39:46;5.72;;;3.30;;
72205;SDS011;60111;48.286;7.812;2022-07-17T00:42:18;4.65;;;2.92;;
72205;SDS011;60111;48.286;7.812;2022-07-17T00:44:52;7.10;;;3.20;;
72205;SDS011;60111;48.286;7.812;2022-07-17T00:47:24;7.45;;;3.30;;
72205;SDS011;60111;48.286;7.812;2022-07-17T00:49:57;5.40;;;2.90;;
72205;SDS011;60111;48.286;7.812;2022-07-17T00:52:29;5.27;;;3.23;;
72205;SDS011;60111;48.286;7.812;2022-07-17T00:55:02;4.53;;;3.37;;
72205;SDS011;60111;48.286;7.812;2022-07-17T00:57:35;3.70;;;3.27;;
72205;SDS011;60111;48.286;7.812;2022-07-17T01:00:11;4.87;;;3.37;;
72205;SDS011;60111;48.286;7.812;2022-07-17T01:02:45;3.83;;;2.95;;
72205;SDS011;60111;48.286;7.812;2022-07-17T01:05:19;4.65;;;3.22;;
72205;SDS011;60111;48.286;7.812;2022-07-17T01:07:53;7.22;;;3.65;;
72205;SDS011;60111;48.286;7.812;2022-07-17T01:10:25;4.17;;;3.10;;
72205;SDS011;60111;48.286;7.812;2022-07-17T01:12:58;7.55;;;3.52;;
72205;SDS011;60111;48.286;7.812;2022-07-17T01:15:35;4.45;;;3.30;;
72205;SDS011;60111;48.286;7.812;2022-07-17T01:18:10;8.10;;;3.70;;
72205;SDS011;60111;48.286;7.812;2022-07-17T01:20:45;6.62;;;3.87;;
72205;SDS011;60111;48.286;7.812;2022-07-17T01:23:19;7.83;;;3.83;;
72205;SDS011;60111;48.286;7.812;2022-07-17T01:25:52;6.30;;;3.63;;
72205;SDS011;60111;48.286;7.812;2022-07-17T01:28:24;4.92;;;3.62;;
72205;SDS011;60111;48.286;7.812;2022-07-17T01:30:57;5.72;;;4.05;;
72205;SDS011;60111;48.286;7.812;2022-07-17T01:33:31;7.10;;;3.30;;
72205;SDS011;60111;48.286;7.812;2022-07-17T01:36:04;6.58;;;3.90;;
72205;SDS011;60111;48.286;7.812;2022-07-17T01:38:37;6.70;;;3.70;;
72205;SDS011;60111;48.286;7.812;2022-07-17T01:41:10;6.00;;;3.77;;
72205;SDS011;60111;48.286;7.812;2022-07-17T01:43:43;5.92;;;3.60;;
72205;SDS011;60111;48.286;7.812;2022-07-17T01:46:15;6.05;;;3.50;;
72205;SDS011;60111;48.286;7.812;2022-07-17T01:48:48;5.65;;;3.35;;
72205;SDS011;60111;48.286;7.812;2022-07-17T01:51:21;5.23;;;3.50;;
72205;SDS011;60111;48.286;7.812;2022-07-17T01:53:53;5.92;;;3.00;;
72205;SDS011;60111;48.286;7.812;2022-07-17T01:56:26;5.78;;;3.47;;
72205;SDS011;60111;48.286;7.812;2022-07-17T01:58:58;4.53;;;3.62;;
72205;SDS011;60111;48.286;7.812;2022-07-17T02:01:31;7.22;;;3.77;;
72205;SDS011;60111;48.286;7.812;2022-07-17T02:04:04;4.95;;;3.75;;
72205;SDS011;60111;48.286;7.812;2022-07-17T02:06:36;4.03;;;2.92;;
72205;SDS011;60111;48.286;7.812;2022-07-17T02:09:09;4.40;;;3.17;;
72205;SDS011;60111;48.286;7.812;2022-07-17T02:11:41;5.78;;;3.67;;
72205;SDS011;60111;48.286;7.812;2022-07-17T02:14:14;4.00;;;3.02;;
72205;SDS011;60111;48.286;7.812;2022-07-17T02:16:47;4.90;;;3.27;;
72205;SDS011;60111;48.286;7.812;2022-07-17T02:19:20;5.10;;;3.43;;
72205;SDS011;60111;48.286;7.812;2022-07-17T02:21:52;4.45;;;3.40;;
72205;SDS011;60111;48.286;7.812;2022-07-17T02:24:25;4.72;;;3.30;;
72205;SDS011;60111;48.286;7.812;2022-07-17T02:26:58;5.42;;;4.15;;
72205;SDS011;60111;48.286;7.812;2022-07-17T02:29:30;4.15;;;3.33;;
72205;SDS011;60111;48.286;7.812;2022-07-17T02:32:03;8.33;;;3.83;;
72205;SDS011;60111;48.286;7.812;2022-07-17T02:34:36;6.33;;;4.25;;
72205;SDS011;60111;48.286;7.812;2022-07-17T02:37:09;7.60;;;3.70;;
72205;SDS011;60111;48.286;7.812;2022-07-17T02:39:42;5.00;;;3.40;;
72205;SDS011;60111;48.286;7.812;2022-07-17T02:42:25;5.30;;;3.80;;
72205;SDS011;60111;48.286;7.812;2022-07-17T02:44:59;6.00;;;3.47;;
72205;SDS011;60111;48.286;7.812;2022-07-17T02:47:32;4.42;;;3.22;;
72205;SDS011;60111;48.286;7.812;2022-07-17T02:50:07;3.93;;;3.30;;
72205;SDS011;60111;48.286;7.812;2022-07-17T02:55:14;6.12;;;3.33;;
72205;SDS011;60111;48.286;7.812;2022-07-17T02:57:48;3.92;;;3.50;;
72205;SDS011;60111;48.286;7.812;2022-07-17T03:00:20;7.17;;;3.30;;
72205;SDS011;60111;48.286;7.812;2022-07-17T03:02:53;5.58;;;3.30;;
72205;SDS011;60111;48.286;7.812;2022-07-17T03:05:26;4.30;;;3.33;;
72205;SDS011;60111;48.286;7.812;2022-07-17T03:07:59;4.03;;;3.40;;
72205;SDS011;60111;48.286;7.812;2022-07-17T03:10:31;3.65;;;3.08;;
72205;SDS011;60111;48.286;7.812;2022-07-17T03:13:04;3.87;;;3.50;;
72205;SDS011;60111;48.286;7.812;2022-07-17T03:15:37;10.58;;;3.67;;
72205;SDS011;60111;48.286;7.812;2022-07-17T03:18:09;4.45;;;3.37;;
72205;SDS011;60111;48.286;7.812;2022-07-17T03:20:43;7.70;;;3.67;;
72205;SDS011;60111;48.286;7.812;2022-07-17T03:23:15;6.67;;;3.70;;
72205;SDS011;60111;48.286;7.812;2022-07-17T03:25:48;7.00;;;3.20;;
72205;SDS011;60111;48.286;7.812;2022-07-17T03:28:21;5.97;;;3.45;;
72205;SDS011;60111;48.286;7.812;2022-07-17T03:30:53;5.75;;;3.40;;
72205;SDS011;60111;48.286;7.812;2022-07-17T03:33:26;4.08;;;3.12;;
72205;SDS011;60111;48.286;7.812;2022-07-17T03:35:58;4.80;;;3.12;;
72205;SDS011;60111;48.286;7.812;2022-07-17T03:38:31;4.17;;;3.02;;
72205;SDS011;60111;48.286;7.812;2022-07-17T03:41:04;6.15;;;2.90;;
72205;SDS011;60111;48.286;7.812;2022-07-17T03:43:36;4.42;;;2.72;;
72205;SDS011;60111;48.286;7.812;2022-07-17T03:46:09;5.40;;;2.90;;
72205;SDS011;60111;48.286;7.812;2022-07-17T03:48:41;4.78;;;2.87;;
72205;SDS011;60111;48.286;7.812;2022-07-17T03:51:14;3.42;;;2.60;;
72205;SDS011;60111;48.286;7.812;2022-07-17T03:53:47;5.33;;;2.77;;
72205;SDS011;60111;48.286;7.812;2022-07-17T03:56:19;4.87;;;2.42;;
72205;SDS011;60111;48.286;7.812;2022-07-17T03:58:52;8.05;;;3.00;;
72205;SDS011;60111;48.286;7.812;2022-07-17T04:01:25;3.62;;;3.00;;
72205;SDS011;60111;48.286;7.812;2022-07-17T04:03:57;3.55;;;3.08;;
72205;SDS011;60111;48.286;7.812;2022-07-17T04:06:30;6.25;;;2.87;;
72205;SDS011;60111;48.286;7.812;2022-07-17T04:09:03;3.77;;;2.57;;
72205;SDS011;60111;48.286;7.812;2022-07-17T04:11:37;4.62;;;3.02;;
72205;SDS011;60111;48.286;7.812;2022-07-17T04:14:10;3.63;;;2.93;;
72205;SDS011;60111;48.286;7.812;2022-07-17T04:16:43;5.58;;;3.10;;
72205;SDS011;60111;48.286;7.812;2022-07-17T04:19:16;5.60;;;3.20;;
72205;SDS011;60111;48.286;7.812;2022-07-17T04:21:48;3.72;;;2.62;;
72205;SDS011;60111;48.286;7.812;2022-07-17T04:24:21;4.10;;;2.70;;
72205;SDS011;60111;48.286;7.812;2022-07-17T04:26:53;5.08;;;2.77;;
72205;SDS011;60111;48.286;7.812;2022-07-17T04:29:26;5.57;;;3.13;;
72205;SDS011;60111;48.286;7.812;2022-07-17T04:31:59;8.73;;;2.72;;
72205;SDS011;60111;48.286;7.812;2022-07-17T04:34:31;3.25;;;2.83;;
72205;SDS011;60111;48.286;7.812;2022-07-17T04:37:05;4.10;;;3.05;;
72205;SDS011;60111;48.286;7.812;2022-07-17T04:39:37;4.47;;;2.87;;
72205;SDS011;60111;48.286;7.812;2022-07-17T04:42:10;4.83;;;2.92;;
72205;SDS011;60111;48.286;7.812;2022-07-17T04:44:43;3.05;;;2.72;;
72205;SDS011;60111;48.286;7.812;2022-07-17T04:47:16;4.90;;;2.75;;
72205;SDS011;60111;48.286;7.812;2022-07-17T04:49:48;7.08;;;2.72;;
72205;SDS011;60111;48.286;7.812;2022-07-17T04:52:21;6.25;;;3.12;;
72205;SDS011;60111;48.286;7.812;2022-07-17T04:54:53;4.67;;;2.42;;
72205;SDS011;60111;48.286;7.812;2022-07-17T04:57:26;6.85;;;2.77;;
72205;SDS011;60111;48.286;7.812;2022-07-17T04:59:59;5.10;;;2.60;;
72205;SDS011;60111;48.286;7.812;2022-07-17T05:02:31;5.83;;;2.90;;
72205;SDS011;60111;48.286;7.812;2022-07-17T05:05:05;4.47;;;2.72;;
72205;SDS011;60111;48.286;7.812;2022-07-17T05:07:38;6.15;;;2.55;;
72205;SDS011;60111;48.286;7.812;2022-07-17T05:10:10;5.97;;;3.07;;
72205;SDS011;60111;48.286;7.812;2022-07-17T05:12:43;7.00;;;3.05;;
72205;SDS011;60111;48.286;7.812;2022-07-17T05:15:16;7.03;;;2.90;;
72205;SDS011;60111;48.286;7.812;2022-07-17T05:17:48;3.85;;;2.90;;
72205;SDS011;60111;48.286;7.812;2022-07-17T05:20:21;15.65;;;4.35;;
72205;SDS011;60111;48.286;7.812;2022-07-17T05:22:54;4.35;;;3.05;;
72205;SDS011;60111;48.286;7.812;2022-07-17T05:25:27;5.33;;;3.10;;
72205;SDS011;60111;48.286;7.812;2022-07-17T05:27:59;3.52;;;2.87;;
72205;SDS011;60111;48.286;7.812;2022-07-17T05:30:33;4.83;;;2.98;;
72205;SDS011;60111;48.286;7.812;2022-07-17T05:33:05;5.33;;;2.72;;
72205;SDS011;60111;48.286;7.812;2022-07-17T05:35:38;6.05;;;2.83;;
72205;SDS011;60111;48.286;7.812;2022-07-17T05:38:10;3.50;;;2.87;;
72205;SDS011;60111;48.286;7.812;2022-07-17T05:40:43;5.95;;;2.90;;
72205;SDS011;60111;48.286;7.812;2022-07-17T05:43:16;3.33;;;2.80;;
72205;SDS011;60111;48.286;7.812;2022-07-17T05:45:48;4.67;;;2.70;;
72205;SDS011;60111;48.286;7.812;2022-07-17T05:48:21;3.67;;;2.83;;
72205;SDS011;60111;48.286;7.812;2022-07-17T05:50:54;5.72;;;3.30;;
72205;SDS011;60111;48.286;7.812;2022-07-17T05:53:27;5.67;;;2.90;;
72205;SDS011;60111;48.286;7.812;2022-07-17T05:55:59;9.50;;;3.20;;
72205;SDS011;60111;48.286;7.812;2022-07-17T05:58:32;3.17;;;2.67;;
72205;SDS011;60111;48.286;7.812;2022-07-17T06:01:05;7.95;;;2.77;;
72205;SDS011;60111;48.286;7.812;2022-07-17T06:03:37;5.22;;;2.80;;
72205;SDS011;60111;48.286;7.812;2022-07-17T06:06:10;8.48;;;3.50;;
72205;SDS011;60111;48.286;7.812;2022-07-17T06:08:43;5.80;;;3.27;;
72205;SDS011;60111;48.286;7.812;2022-07-17T06:11:16;7.10;;;3.63;;
72205;SDS011;60111;48.286;7.812;2022-07-17T06:13:48;9.80;;;3.50;;
72205;SDS011;60111;48.286;7.812;2022-07-17T06:16:21;11.50;;;4.00;;
72205;SDS011;60111;48.286;7.812;2022-07-17T06:18:54;7.12;;;3.17;;
72205;SDS011;60111;48.286;7.812;2022-07-17T06:21:27;4.17;;;2.90;;
72205;SDS011;60111;48.286;7.812;2022-07-17T06:23:59;4.83;;;2.80;;
72205;SDS011;60111;48.286;7.812;2022-07-17T06:26:32;6.20;;;2.83;;
72205;SDS011;60111;48.286;7.812;2022-07-17T06:29:05;8.53;;;3.30;;
72205;SDS011;60111;48.286;7.812;2022-07-17T06:31:38;5.15;;;3.20;;
72205;SDS011;60111;48.286;7.812;2022-07-17T06:34:11;4.17;;;3.03;;
72205;SDS011;60111;48.286;7.812;2022-07-17T06:36:44;6.50;;;2.58;;
72205;SDS011;60111;48.286;7.812;2022-07-17T06:39:17;3.10;;;2.80;;
72205;SDS011;60111;48.286;7.812;2022-07-17T06:41:50;5.75;;;2.92;;
72205;SDS011;60111;48.286;7.812;2022-07-17T06:44:22;6.95;;;2.80;;
72205;SDS011;60111;48.286;7.812;2022-07-17T06:46:55;5.53;;;2.92;;
72205;SDS011;60111;48.286;7.812;2022-07-17T06:49:27;5.17;;;2.98;;
72205;SDS011;60111;48.286;7.812;2022-07-17T06:52:00;4.78;;;2.72;;
72205;SDS011;60111;48.286;7.812;2022-07-17T06:54:33;7.37;;;2.77;;
72205;SDS011;60111;48.286;7.812;2022-07-17T06:57:05;8.65;;;3.22;;
72205;SDS011;60111;48.286;7.812;2022-07-17T06:59:38;5.55;;;3.02;;
72205;SDS011;60111;48.286;7.812;2022-07-17T07:02:11;6.25;;;3.20;;
72205;SDS011;60111;48.286;7.812;2022-07-17T07:04:44;8.23;;;2.60;;
72205;SDS011;60111;48.286;7.812;2022-07-17T07:07:16;6.53;;;3.17;;
72205;SDS011;60111;48.286;7.812;2022-07-17T07:09:49;3.70;;;3.00;;
72205;SDS011;60111;48.286;7.812;2022-07-17T07:12:22;4.25;;;3.10;;
72205;SDS011;60111;48.286;7.812;2022-07-17T07:14:54;7.40;;;2.77;;
72205;SDS011;60111;48.286;7.812;2022-07-17T07:17:27;3.25;;;2.60;;
72205;SDS011;60111;48.286;7.812;2022-07-17T07:20:02;4.90;;;3.25;;
72205;SDS011;60111;48.286;7.812;2022-07-17T07:22:35;5.53;;;2.98;;
72205;SDS011;60111;48.286;7.812;2022-07-17T07:25:08;4.22;;;2.80;;
72205;SDS011;60111;48.286;7.812;2022-07-17T07:27:41;8.20;;;2.92;;
72205;SDS011;60111;48.286;7.812;2022-07-17T07:30:14;4.70;;;3.02;;
72205;SDS011;60111;48.286;7.812;2022-07-17T07:32:46;4.10;;;2.70;;
72205;SDS011;60111;48.286;7.812;2022-07-17T07:35:19;6.03;;;2.95;;
72205;SDS011;60111;48.286;7.812;2022-07-17T07:37:52;4.17;;;2.72;;
72205;SDS011;60111;48.286;7.812;2022-07-17T07:40:24;7.22;;;2.70;;
72205;SDS011;60111;48.286;7.812;2022-07-17T07:42:57;3.40;;;2.70;;
72205;SDS011;60111;48.286;7.812;2022-07-17T07:45:30;5.80;;;2.50;;
72205;SDS011;60111;48.286;7.812;2022-07-17T07:48:03;7.30;;;2.83;;
72205;SDS011;60111;48.286;7.812;2022-07-17T07:50:36;8.43;;;2.90;;
72205;SDS011;60111;48.286;7.812;2022-07-17T07:53:09;5.95;;;3.15;;
72205;SDS011;60111;48.286;7.812;2022-07-17T07:55:42;3.65;;;2.75;;
72205;SDS011;60111;48.286;7.812;2022-07-17T07:58:14;5.30;;;2.62;;
72205;SDS011;60111;48.286;7.812;2022-07-17T08:00:47;9.18;;;3.17;;
72205;SDS011;60111;48.286;7.812;2022-07-17T08:03:20;3.58;;;2.35;;
72205;SDS011;60111;48.286;7.812;2022-07-17T08:05:52;5.55;;;2.72;;
72205;SDS011;60111;48.286;7.812;2022-07-17T08:08:25;4.42;;;2.33;;
72205;SDS011;60111;48.286;7.812;2022-07-17T08:10:57;4.40;;;2.40;;
72205;SDS011;60111;48.286;7.812;2022-07-17T08:13:30;3.70;;;2.27;;
72205;SDS011;60111;48.286;7.812;2022-07-17T08:16:03;3.10;;;2.20;;
72205;SDS011;60111;48.286;7.812;2022-07-17T08:18:36;3.35;;;2.40;;
72205;SDS011;60111;48.286;7.812;2022-07-17T08:21:08;4.17;;;2.50;;
72205;SDS011;60111;48.286;7.812;2022-07-17T08:23:41;4.78;;;2.30;;
72205;SDS011;60111;48.286;7.812;2022-07-17T08:26:14;8.88;;;2.65;;
72205;SDS011;60111;48.286;7.812;2022-07-17T08:28:46;7.10;;;2.42;;
72205;SDS011;60111;48.286;7.812;2022-07-17T08:31:19;5.72;;;2.50;;
72205;SDS011;60111;48.286;7.812;2022-07-17T08:33:52;3.57;;;2.20;;
72205;SDS011;60111;48.286;7.812;2022-07-17T08:36:24;4.78;;;2.30;;
72205;SDS011;60111;48.286;7.812;2022-07-17T08:38:57;4.75;;;2.05;;
72205;SDS011;60111;48.286;7.812;2022-07-17T08:41:30;3.20;;;2.25;;
72205;SDS011;60111;48.286;7.812;2022-07-17T08:44:04;2.90;;;2.00;;
72205;SDS011;60111;48.286;7.812;2022-07-17T08:46:39;3.47;;;2.30;;
72205;SDS011;60111;48.286;7.812;2022-07-17T08:49:12;5.20;;;2.25;;
72205;SDS011;60111;48.286;7.812;2022-07-17T08:51:47;2.85;;;2.10;;
72205;SDS011;60111;48.286;7.812;2022-07-17T08:54:20;4.25;;;2.30;;
72205;SDS011;60111;48.286;7.812;2022-07-17T08:56:54;4.17;;;2.20;;
72205;SDS011;60111;48.286;7.812;2022-07-17T08:59:26;8.20;;;2.20;;
72205;SDS011;60111;48.286;7.812;2022-07-17T09:01:59;7.12;;;2.40;;
72205;SDS011;60111;48.286;7.812;2022-07-17T09:04:32;3.55;;;2.30;;
72205;SDS011;60111;48.286;7.812;2022-07-17T09:07:04;2.22;;;2.02;;
72205;SDS011;60111;48.286;7.812;2022-07-17T09:09:37;3.07;;;1.70;;
72205;SDS011;60111;48.286;7.812;2022-07-17T09:12:11;5.10;;;2.08;;
72205;SDS011;60111;48.286;7.812;2022-07-17T09:17:17;2.17;;;1.98;;
72205;SDS011;60111;48.286;7.812;2022-07-17T09:19:50;10.60;;;2.13;;
72205;SDS011;60111;48.286;7.812;2022-07-17T09:22:24;6.12;;;2.20;;
72205;SDS011;60111;48.286;7.812;2022-07-17T09:24:57;2.00;;;1.80;;
72205;SDS011;60111;48.286;7.812;2022-07-17T09:27:31;2.35;;;2.00;;
72205;SDS011;60111;48.286;7.812;2022-07-17T09:30:05;3.27;;;2.12;;
72205;SDS011;60111;48.286;7.812;2022-07-17T09:32:41;3.58;;;2.25;;
72205;SDS011;60111;48.286;7.812;2022-07-17T09:35:14;1.97;;;1.77;;
72205;SDS011;60111;48.286;7.812;2022-07-17T09:37:47;3.40;;;2.40;;
72205;SDS011;60111;48.286;7.812;2022-07-17T09:40:21;3.42;;;2.42;;
72205;SDS011;60111;48.286;7.812;2022-07-17T09:43:13;3.92;;;2.00;;
72205;SDS011;60111;48.286;7.812;2022-07-17T09:45:45;2.87;;;1.87;;
72205;SDS011;60111;48.286;7.812;2022-07-17T09:48:19;4.10;;;2.10;;
72205;SDS011;60111;48.286;7.812;2022-07-17T09:50:52;3.87;;;2.08;;
72205;SDS011;60111;48.286;7.812;2022-07-17T09:53:24;2.22;;;1.87;;
72205;SDS011;60111;48.286;7.812;2022-07-17T09:55:57;3.58;;;2.10;;
72205;SDS011;60111;48.286;7.812;2022-07-17T09:58:33;4.05;;;2.12;;
72205;SDS011;60111;48.286;7.812;2022-07-17T10:01:08;3.77;;;2.08;;
72205;SDS011;60111;48.286;7.812;2022-07-17T10:03:42;3.50;;;2.23;;
72205;SDS011;60111;48.286;7.812;2022-07-17T10:06:16;4.08;;;1.70;;
72205;SDS011;60111;48.286;7.812;2022-07-17T10:08:49;3.40;;;2.00;;
72205;SDS011;60111;48.286;7.812;2022-07-17T10:11:23;2.90;;;2.02;;
72205;SDS011;60111;48.286;7.812;2022-07-17T10:14:17;2.97;;;2.00;;
72205;SDS011;60111;48.286;7.812;2022-07-17T10:16:43;3.05;;;2.20;;
72205;SDS011;60111;48.286;7.812;2022-07-17T10:19:20;3.67;;;1.70;;
72205;SDS011;60111;48.286;7.812;2022-07-17T10:21:58;3.33;;;1.82;;
72205;SDS011;60111;48.286;7.812;2022-07-17T10:24:29;2.10;;;1.90;;
72205;SDS011;60111;48.286;7.812;2022-07-17T10:27:02;2.10;;;1.80;;
72205;SDS011;60111;48.286;7.812;2022-07-17T10:29:36;3.62;;;1.60;;
72205;SDS011;60111;48.286;7.812;2022-07-17T10:32:18;1.97;;;1.67;;
72205;SDS011;60111;48.286;7.812;2022-07-17T10:34:58;3.97;;;2.10;;
72205;SDS011;60111;48.286;7.812;2022-07-17T10:40:18;5.45;;;1.75;;
72205;SDS011;60111;48.286;7.812;2022-07-17T10:42:54;6.50;;;2.00;;
72205;SDS011;60111;48.286;7.812;2022-07-17T10:45:38;2.65;;;1.95;;
72205;SDS011;60111;48.286;7.812;2022-07-17T10:48:16;6.03;;;1.80;;
72205;SDS011;60111;48.286;7.812;2022-07-17T10:50:52;2.30;;;1.80;;
72205;SDS011;60111;48.286;7.812;2022-07-17T10:53:30;7.67;;;2.08;;
72205;SDS011;60111;48.286;7.812;2022-07-17T10:56:05;3.87;;;2.07;;
72205;SDS011;60111;48.286;7.812;2022-07-17T10:58:44;4.53;;;2.00;;
72205;SDS011;60111;48.286;7.812;2022-07-17T11:01:16;2.42;;;2.12;;
72205;SDS011;60111;48.286;7.812;2022-07-17T11:06:27;2.42;;;1.98;;
72205;SDS011;60111;48.286;7.812;2022-07-17T11:09:05;4.00;;;1.95;;
72205;SDS011;60111;48.286;7.812;2022-07-17T11:11:41;3.02;;;2.02;;
72205;SDS011;60111;48.286;7.812;2022-07-17T11:16:58;9.15;;;2.12;;
72205;SDS011;60111;48.286;7.812;2022-07-17T11:19:36;7.35;;;2.40;;
72205;SDS011;60111;48.286;7.812;2022-07-17T11:22:15;4.63;;;2.00;;
72205;SDS011;60111;48.286;7.812;2022-07-17T11:24:48;2.43;;;1.70;;
72205;SDS011;60111;48.286;7.812;2022-07-17T11:27:22;3.25;;;1.85;;
72205;SDS011;60111;48.286;7.812;2022-07-17T11:29:57;2.67;;;1.70;;
72205;SDS011;60111;48.286;7.812;2022-07-17T11:32:32;1.98;;;1.70;;
72205;SDS011;60111;48.286;7.812;2022-07-17T11:35:24;5.47;;;2.10;;
72205;SDS011;60111;48.286;7.812;2022-07-17T11:37:50;3.72;;;1.82;;
72205;SDS011;60111;48.286;7.812;2022-07-17T11:40:23;4.55;;;1.80;;
72205;SDS011;60111;48.286;7.812;2022-07-17T11:42:59;3.10;;;1.77;;
72205;SDS011;60111;48.286;7.812;2022-07-17T11:45:32;5.47;;;1.90;;
72205;SDS011;60111;48.286;7.812;2022-07-17T11:48:06;1.80;;;1.70;;
72205;SDS011;60111;48.286;7.812;2022-07-17T11:50:39;5.40;;;1.75;;
72205;SDS011;60111;48.286;7.812;2022-07-17T11:53:12;1.47;;;1.30;;
72205;SDS011;60111;48.286;7.812;2022-07-17T11:55:44;3.03;;;1.73;;
72205;SDS011;60111;48.286;7.812;2022-07-17T11:58:17;2.85;;;1.95;;
72205;SDS011;60111;48.286;7.812;2022-07-17T12:00:59;1.80;;;1.70;;
72205;SDS011;60111;48.286;7.812;2022-07-17T12:03:34;3.92;;;1.60;;
72205;SDS011;60111;48.286;7.812;2022-07-17T12:06:07;1.67;;;1.40;;
72205;SDS011;60111;48.286;7.812;2022-07-17T12:08:49;6.13;;;2.00;;
72205;SDS011;60111;48.286;7.812;2022-07-17T12:11:15;2.77;;;1.92;;
72205;SDS011;60111;48.286;7.812;2022-07-17T12:13:48;3.27;;;2.02;;
72205;SDS011;60111;48.286;7.812;2022-07-17T12:16:22;1.97;;;1.77;;
72205;SDS011;60111;48.286;7.812;2022-07-17T12:18:58;4.37;;;1.70;;
72205;SDS011;60111;48.286;7.812;2022-07-17T12:21:58;3.85;;;2.30;;
72205;SDS011;60111;48.286;7.812;2022-07-17T12:24:19;4.30;;;1.77;;
72205;SDS011;60111;48.286;7.812;2022-07-17T12:26:58;3.27;;;1.50;;
72205;SDS011;60111;48.286;7.812;2022-07-17T12:29:32;4.17;;;1.77;;
72205;SDS011;60111;48.286;7.812;2022-07-17T12:34:44;5.30;;;1.60;;
72205;SDS011;60111;48.286;7.812;2022-07-17T12:37:19;2.55;;;1.70;;
72205;SDS011;60111;48.286;7.812;2022-07-17T12:39:52;5.72;;;1.92;;
72205;SDS011;60111;48.286;7.812;2022-07-17T12:42:26;4.17;;;1.98;;
72205;SDS011;60111;48.286;7.812;2022-07-17T12:44:59;4.75;;;1.72;;
72205;SDS011;60111;48.286;7.812;2022-07-17T12:47:32;2.27;;;1.80;;
72205;SDS011;60111;48.286;7.812;2022-07-17T12:50:06;2.15;;;1.80;;
72205;SDS011;60111;48.286;7.812;2022-07-17T12:52:39;5.45;;;2.08;;
72205;SDS011;60111;48.286;7.812;2022-07-17T12:55:11;3.40;;;1.80;;
72205;SDS011;60111;48.286;7.812;2022-07-17T12:57:45;2.17;;;1.75;;
72205;SDS011;60111;48.286;7.812;2022-07-17T13:00:17;4.47;;;1.80;;
72205;SDS011;60111;48.286;7.812;2022-07-17T13:02:50;4.17;;;2.53;;
72205;SDS011;60111;48.286;7.812;2022-07-17T13:05:22;5.42;;;2.00;;
72205;SDS011;60111;48.286;7.812;2022-07-17T13:07:55;3.60;;;1.65;;
72205;SDS011;60111;48.286;7.812;2022-07-17T13:10:28;6.07;;;3.33;;
72205;SDS011;60111;48.286;7.812;2022-07-17T13:13:01;7.43;;;2.67;;
72205;SDS011;60111;48.286;7.812;2022-07-17T13:15:35;13.30;;;8.60;;
72205;SDS011;60111;48.286;7.812;2022-07-17T13:18:07;9.28;;;4.22;;
72205;SDS011;60111;48.286;7.812;2022-07-17T13:20:40;3.60;;;1.70;;
72205;SDS011;60111;48.286;7.812;2022-07-17T13:23:13;2.90;;;2.00;;
72205;SDS011;60111;48.286;7.812;2022-07-17T13:25:46;4.63;;;2.07;;
72205;SDS011;60111;48.286;7.812;2022-07-17T13:28:18;1.85;;;1.60;;
72205;SDS011;60111;48.286;7.812;2022-07-17T13:30:51;2.70;;;1.62;;
72205;SDS011;60111;48.286;7.812;2022-07-17T13:33:25;4.00;;;1.67;;
72205;SDS011;60111;48.286;7.812;2022-07-17T13:35:58;2.47;;;1.50;;
72205;SDS011;60111;48.286;7.812;2022-07-17T13:38:30;3.22;;;1.70;;
72205;SDS011;60111;48.286;7.812;2022-07-17T13:41:03;3.73;;;1.83;;
72205;SDS011;60111;48.286;7.812;2022-07-17T13:43:36;4.33;;;1.90;;
72205;SDS011;60111;48.286;7.812;2022-07-17T13:46:10;1.80;;;1.70;;
72205;SDS011;60111;48.286;7.812;2022-07-17T13:48:43;4.77;;;1.70;;
72205;SDS011;60111;48.286;7.812;2022-07-17T13:51:15;3.40;;;1.77;;
72205;SDS011;60111;48.286;7.812;2022-07-17T13:53:48;3.03;;;1.60;;
72205;SDS011;60111;48.286;7.812;2022-07-17T13:56:20;5.20;;;3.20;;
72205;SDS011;60111;48.286;7.812;2022-07-17T13:58:53;3.52;;;1.77;;
72205;SDS011;60111;48.286;7.812;2022-07-17T14:01:31;1.70;;;1.60;;
72205;SDS011;60111;48.286;7.812;2022-07-17T14:04:00;2.60;;;1.50;;
72205;SDS011;60111;48.286;7.812;2022-07-17T14:06:33;2.37;;;1.55;;
72205;SDS011;60111;48.286;7.812;2022-07-17T14:09:06;2.02;;;1.70;;
72205;SDS011;60111;48.286;7.812;2022-07-17T14:11:39;5.35;;;1.70;;
72205;SDS011;60111;48.286;7.812;2022-07-17T14:14:11;2.02;;;1.80;;
72205;SDS011;60111;48.286;7.812;2022-07-17T14:16:45;3.22;;;1.72;;
72205;SDS011;60111;48.286;7.812;2022-07-17T14:19:17;5.12;;;1.65;;
72205;SDS011;60111;48.286;7.812;2022-07-17T14:21:50;3.13;;;2.00;;
72205;SDS011;60111;48.286;7.812;2022-07-17T14:24:22;4.67;;;1.60;;
72205;SDS011;60111;48.286;7.812;2022-07-17T14:26:56;3.23;;;1.70;;
72205;SDS011;60111;48.286;7.812;2022-07-17T14:29:28;8.70;;;1.65;;
72205;SDS011;60111;48.286;7.812;2022-07-17T14:32:01;5.80;;;1.60;;
72205;SDS011;60111;48.286;7.812;2022-07-17T14:34:34;2.08;;;1.70;;
72205;SDS011;60111;48.286;7.812;2022-07-17T14:37:06;2.37;;;1.50;;
72205;SDS011;60111;48.286;7.812;2022-07-17T14:39:39;1.73;;;1.60;;
72205;SDS011;60111;48.286;7.812;2022-07-17T14:42:12;5.45;;;1.70;;
72205;SDS011;60111;48.286;7.812;2022-07-17T14:44:45;4.60;;;1.90;;
72205;SDS011;60111;48.286;7.812;2022-07-17T14:47:18;3.60;;;1.52;;
72205;SDS011;60111;48.286;7.812;2022-07-17T14:49:50;5.78;;;1.80;;
72205;SDS011;60111;48.286;7.812;2022-07-17T14:52:23;4.27;;;1.63;;
72205;SDS011;60111;48.286;7.812;2022-07-17T14:54:56;2.52;;;1.45;;
72205;SDS011;60111;48.286;7.812;2022-07-17T14:57:28;2.92;;;1.62;;
72205;SDS011;60111;48.286;7.812;2022-07-17T15:00:01;3.47;;;1.50;;
72205;SDS011;60111;48.286;7.812;2022-07-17T15:02:34;2.20;;;1.70;;
72205;SDS011;60111;48.286;7.812;2022-07-17T15:05:07;1.82;;;1.40;;
72205;SDS011;60111;48.286;7.812;2022-07-17T15:07:40;4.50;;;1.60;;
72205;SDS011;60111;48.286;7.812;2022-07-17T15:10:13;3.22;;;1.40;;
72205;SDS011;60111;48.286;7.812;2022-07-17T15:12:45;2.10;;;1.30;;
72205;SDS011;60111;48.286;7.812;2022-07-17T15:15:18;1.72;;;1.52;;
72205;SDS011;60111;48.286;7.812;2022-07-17T15:17:50;2.65;;;2.00;;
72205;SDS011;60111;48.286;7.812;2022-07-17T15:20:23;3.43;;;3.13;;
72205;SDS011;60111;48.286;7.812;2022-07-17T15:22:56;5.80;;;1.77;;
72205;SDS011;60111;48.286;7.812;2022-07-17T15:25:28;2.08;;;1.35;;
72205;SDS011;60111;48.286;7.812;2022-07-17T15:28:01;2.43;;;1.40;;
72205;SDS011;60111;48.286;7.812;2022-07-17T15:30:34;3.75;;;1.45;;
72205;SDS011;60111;48.286;7.812;2022-07-17T15:33:06;3.27;;;1.52;;
72205;SDS011;60111;48.286;7.812;2022-07-17T15:35:39;2.10;;;1.53;;
72205;SDS011;60111;48.286;7.812;2022-07-17T15:38:11;2.27;;;2.08;;
72205;SDS011;60111;48.286;7.812;2022-07-17T15:40:45;7.12;;;3.00;;